sensor_id;sensor_type;location;lat;lon;timestamp;P1;durP1;ratioP1;P2;durP2;ratioP2
36593;SDS011;22603;47.900;8.146;2023-03-14T00:02:30;0.30;;;0.30;;
36593;SDS011;22603;47.900;8.146;2023-03-14T00:05:17;1.10;;;0.50;;
36593;SDS011;22603;47.900;8.146;2023-03-14T00:08:04;0.30;;;0.30;;
36593;SDS011;22603;47.900;8.146;2023-03-14T00:10:51;0.30;;;0.30;;
36593;SDS011;22603;47.900;8.146;2023-03-14T00:13:38;0.50;;;0.50;;
36593;SDS011;22603;47.900;8.146;2023-03-14T00:16:26;0.50;;;0.50;;
36593;SDS011;22603;47.900;8.146;2023-03-14T00:19:14;0.40;;;0.40;;
36593;SDS011;22603;47.900;8.146;2023-03-14T00:22:01;0.70;;;0.40;;
36593;SDS011;22603;47.900;8.146;2023-03-14T00:24:48;1.07;;;0.40;;
36593;SDS011;22603;47.900;8.146;2023-03-14T00:27:36;3.50;;;0.47;;
36593;SDS011;22603;47.900;8.146;2023-03-14T00:30:24;0.83;;;0.70;;
36593;SDS011;22603;47.900;8.146;2023-03-14T00:33:10;0.30;;;0.30;;
36593;SDS011;22603;47.900;8.146;2023-03-14T00:35:59;0.57;;;0.47;;
36593;SDS011;22603;47.900;8.146;2023-03-14T00:38:49;0.43;;;0.30;;
36593;SDS011;22603;47.900;8.146;2023-03-14T00:41:37;0.97;;;0.60;;
36593;SDS011;22603;47.900;8.146;2023-03-14T00:44:24;1.17;;;0.40;;
36593;SDS011;22603;47.900;8.146;2023-03-14T00:47:11;0.97;;;0.40;;
36593;SDS011;22603;47.900;8.146;2023-03-14T00:49:58;0.50;;;0.43;;
36593;SDS011;22603;47.900;8.146;2023-03-14T00:52:48;0.53;;;0.50;;
36593;SDS011;22603;47.900;8.146;2023-03-14T00:55:36;3.63;;;0.50;;
36593;SDS011;22603;47.900;8.146;2023-03-14T00:58:23;0.93;;;0.60;;
36593;SDS011;22603;47.900;8.146;2023-03-14T01:01:12;0.30;;;0.30;;
36593;SDS011;22603;47.900;8.146;2023-03-14T01:04:00;0.40;;;0.40;;
36593;SDS011;22603;47.900;8.146;2023-03-14T01:06:47;1.33;;;0.67;;
36593;SDS011;22603;47.900;8.146;2023-03-14T01:09:35;0.77;;;0.43;;
36593;SDS011;22603;47.900;8.146;2023-03-14T01:12:22;0.50;;;0.40;;
36593;SDS011;22603;47.900;8.146;2023-03-14T01:15:09;0.40;;;0.40;;
36593;SDS011;22603;47.900;8.146;2023-03-14T01:17:56;4.57;;;0.63;;
36593;SDS011;22603;47.900;8.146;2023-03-14T01:20:43;0.90;;;0.40;;
36593;SDS011;22603;47.900;8.146;2023-03-14T01:23:30;0.57;;;0.50;;
36593;SDS011;22603;47.900;8.146;2023-03-14T01:26:19;2.23;;;0.70;;
36593;SDS011;22603;47.900;8.146;2023-03-14T01:29:07;0.87;;;0.50;;
36593;SDS011;22603;47.900;8.146;2023-03-14T01:31:54;1.40;;;0.63;;
36593;SDS011;22603;47.900;8.146;2023-03-14T01:34:41;1.07;;;0.40;;
36593;SDS011;22603;47.900;8.146;2023-03-14T01:37:28;0.80;;;0.50;;
36593;SDS011;22603;47.900;8.146;2023-03-14T01:40:15;0.97;;;0.50;;
36593;SDS011;22603;47.900;8.146;2023-03-14T01:43:13;0.60;;;0.60;;
36593;SDS011;22603;47.900;8.146;2023-03-14T01:49:17;1.03;;;0.40;;
36593;SDS011;22603;47.900;8.146;2023-03-14T01:52:11;0.70;;;0.50;;
36593;SDS011;22603;47.900;8.146;2023-03-14T01:55:02;3.03;;;0.50;;
36593;SDS011;22603;47.900;8.146;2023-03-14T01:57:52;0.40;;;0.40;;
36593;SDS011;22603;47.900;8.146;2023-03-14T02:00:44;1.10;;;0.40;;
36593;SDS011;22603;47.900;8.146;2023-03-14T02:03:32;0.97;;;0.50;;
36593;SDS011;22603;47.900;8.146;2023-03-14T02:06:26;0.30;;;0.30;;
36593;SDS011;22603;47.900;8.146;2023-03-14T02:09:20;0.50;;;0.40;;
36593;SDS011;22603;47.900;8.146;2023-03-14T02:12:09;1.53;;;0.60;;
36593;SDS011;22603;47.900;8.146;2023-03-14T02:14:58;2.13;;;0.50;;
36593;SDS011;22603;47.900;8.146;2023-03-14T02:17:46;0.47;;;0.47;;
36593;SDS011;22603;47.900;8.146;2023-03-14T02:20:34;0.83;;;0.57;;
36593;SDS011;22603;47.900;8.146;2023-03-14T02:23:30;0.47;;;0.40;;
36593;SDS011;22603;47.900;8.146;2023-03-14T02:26:26;0.60;;;0.50;;
36593;SDS011;22603;47.900;8.146;2023-03-14T02:29:17;0.37;;;0.37;;
36593;SDS011;22603;47.900;8.146;2023-03-14T02:32:04;0.80;;;0.63;;
36593;SDS011;22603;47.900;8.146;2023-03-14T02:34:53;1.10;;;0.50;;
36593;SDS011;22603;47.900;8.146;2023-03-14T02:37:42;3.40;;;0.53;;
36593;SDS011;22603;47.900;8.146;2023-03-14T02:40:34;0.53;;;0.50;;
36593;SDS011;22603;47.900;8.146;2023-03-14T02:43:21;2.93;;;0.63;;
36593;SDS011;22603;47.900;8.146;2023-03-14T02:46:10;1.43;;;0.60;;
36593;SDS011;22603;47.900;8.146;2023-03-14T02:49:07;0.40;;;0.40;;
36593;SDS011;22603;47.900;8.146;2023-03-14T02:51:56;1.23;;;1.13;;
36593;SDS011;22603;47.900;8.146;2023-03-14T02:54:43;0.30;;;0.30;;
36593;SDS011;22603;47.900;8.146;2023-03-14T02:57:30;1.77;;;0.63;;
36593;SDS011;22603;47.900;8.146;2023-03-14T03:00:20;0.77;;;0.40;;
36593;SDS011;22603;47.900;8.146;2023-03-14T03:03:08;0.83;;;0.57;;
36593;SDS011;22603;47.900;8.146;2023-03-14T03:05:56;0.47;;;0.40;;
36593;SDS011;22603;47.900;8.146;2023-03-14T03:08:43;1.07;;;0.53;;
36593;SDS011;22603;47.900;8.146;2023-03-14T03:11:30;1.10;;;0.50;;
36593;SDS011;22603;47.900;8.146;2023-03-14T03:14:17;0.47;;;0.37;;
36593;SDS011;22603;47.900;8.146;2023-03-14T03:17:05;0.63;;;0.47;;
36593;SDS011;22603;47.900;8.146;2023-03-14T03:19:53;2.07;;;0.67;;
36593;SDS011;22603;47.900;8.146;2023-03-14T03:22:40;0.40;;;0.33;;
36593;SDS011;22603;47.900;8.146;2023-03-14T03:25:27;2.40;;;0.73;;
36593;SDS011;22603;47.900;8.146;2023-03-14T03:28:14;1.73;;;0.60;;
36593;SDS011;22603;47.900;8.146;2023-03-14T03:31:06;0.70;;;0.60;;
36593;SDS011;22603;47.900;8.146;2023-03-14T03:33:54;2.47;;;0.87;;
36593;SDS011;22603;47.900;8.146;2023-03-14T03:36:43;6.13;;;1.17;;
36593;SDS011;22603;47.900;8.146;2023-03-14T03:39:30;2.30;;;0.90;;
36593;SDS011;22603;47.900;8.146;2023-03-14T03:42:18;0.80;;;0.47;;
36593;SDS011;22603;47.900;8.146;2023-03-14T03:45:05;3.83;;;0.80;;
36593;SDS011;22603;47.900;8.146;2023-03-14T03:47:53;2.83;;;0.53;;
36593;SDS011;22603;47.900;8.146;2023-03-14T03:50:44;3.47;;;0.93;;
36593;SDS011;22603;47.900;8.146;2023-03-14T03:53:33;0.50;;;0.50;;
36593;SDS011;22603;47.900;8.146;2023-03-14T03:56:19;2.03;;;0.40;;
36593;SDS011;22603;47.900;8.146;2023-03-14T03:59:06;1.97;;;0.53;;
36593;SDS011;22603;47.900;8.146;2023-03-14T04:01:53;2.33;;;0.73;;
36593;SDS011;22603;47.900;8.146;2023-03-14T04:04:41;3.50;;;0.40;;
36593;SDS011;22603;47.900;8.146;2023-03-14T04:07:30;1.40;;;0.50;;
36593;SDS011;22603;47.900;8.146;2023-03-14T04:10:19;5.20;;;0.60;;
36593;SDS011;22603;47.900;8.146;2023-03-14T04:13:06;0.40;;;0.40;;
36593;SDS011;22603;47.900;8.146;2023-03-14T04:15:54;0.63;;;0.50;;
36593;SDS011;22603;47.900;8.146;2023-03-14T04:18:41;1.60;;;0.60;;
36593;SDS011;22603;47.900;8.146;2023-03-14T04:21:31;0.67;;;0.40;;
36593;SDS011;22603;47.900;8.146;2023-03-14T04:27:23;1.50;;;0.47;;
36593;SDS011;22603;47.900;8.146;2023-03-14T04:30:10;0.73;;;0.50;;
36593;SDS011;22603;47.900;8.146;2023-03-14T04:32:57;0.63;;;0.50;;
36593;SDS011;22603;47.900;8.146;2023-03-14T04:35:47;1.27;;;0.50;;
36593;SDS011;22603;47.900;8.146;2023-03-14T04:38:37;1.53;;;0.70;;
36593;SDS011;22603;47.900;8.146;2023-03-14T04:41:24;0.80;;;0.50;;
36593;SDS011;22603;47.900;8.146;2023-03-14T04:44:13;0.90;;;0.50;;
36593;SDS011;22603;47.900;8.146;2023-03-14T04:47:00;1.40;;;0.40;;
36593;SDS011;22603;47.900;8.146;2023-03-14T04:49:47;0.63;;;0.50;;
36593;SDS011;22603;47.900;8.146;2023-03-14T04:52:34;0.63;;;0.50;;
36593;SDS011;22603;47.900;8.146;2023-03-14T04:55:21;6.77;;;0.60;;
36593;SDS011;22603;47.900;8.146;2023-03-14T04:58:09;0.57;;;0.37;;
36593;SDS011;22603;47.900;8.146;2023-03-14T05:00:57;0.80;;;0.50;;
36593;SDS011;22603;47.900;8.146;2023-03-14T05:03:47;2.27;;;0.50;;
36593;SDS011;22603;47.900;8.146;2023-03-14T05:06:34;0.60;;;0.40;;
36593;SDS011;22603;47.900;8.146;2023-03-14T05:09:21;3.10;;;0.70;;
36593;SDS011;22603;47.900;8.146;2023-03-14T05:12:08;0.30;;;0.30;;
36593;SDS011;22603;47.900;8.146;2023-03-14T05:14:56;0.40;;;0.40;;
36593;SDS011;22603;47.900;8.146;2023-03-14T05:17:44;0.83;;;0.40;;
36593;SDS011;22603;47.900;8.146;2023-03-14T05:20:31;4.70;;;0.50;;
36593;SDS011;22603;47.900;8.146;2023-03-14T05:23:18;0.53;;;0.30;;
36593;SDS011;22603;47.900;8.146;2023-03-14T05:26:05;2.10;;;0.57;;
36593;SDS011;22603;47.900;8.146;2023-03-14T05:28:53;0.30;;;0.30;;
36593;SDS011;22603;47.900;8.146;2023-03-14T05:31:41;1.20;;;0.50;;
36593;SDS011;22603;47.900;8.146;2023-03-14T05:34:30;2.10;;;0.50;;
36593;SDS011;22603;47.900;8.146;2023-03-14T05:37:17;2.80;;;0.60;;
36593;SDS011;22603;47.900;8.146;2023-03-14T05:40:05;2.33;;;0.47;;
36593;SDS011;22603;47.900;8.146;2023-03-14T05:42:54;2.03;;;0.33;;
36593;SDS011;22603;47.900;8.146;2023-03-14T05:45:40;1.23;;;0.47;;
36593;SDS011;22603;47.900;8.146;2023-03-14T05:48:29;0.67;;;0.40;;
36593;SDS011;22603;47.900;8.146;2023-03-14T05:51:17;1.27;;;0.70;;
36593;SDS011;22603;47.900;8.146;2023-03-14T05:54:04;0.57;;;0.53;;
36593;SDS011;22603;47.900;8.146;2023-03-14T05:56:51;1.17;;;0.50;;
36593;SDS011;22603;47.900;8.146;2023-03-14T05:59:38;2.20;;;0.60;;
36593;SDS011;22603;47.900;8.146;2023-03-14T06:02:25;3.33;;;1.27;;
36593;SDS011;22603;47.900;8.146;2023-03-14T06:05:12;0.50;;;0.40;;
36593;SDS011;22603;47.900;8.146;2023-03-14T06:08:01;0.40;;;0.40;;
36593;SDS011;22603;47.900;8.146;2023-03-14T06:10:49;0.80;;;0.57;;
36593;SDS011;22603;47.900;8.146;2023-03-14T06:13:36;0.43;;;0.43;;
36593;SDS011;22603;47.900;8.146;2023-03-14T06:16:23;0.30;;;0.30;;
36593;SDS011;22603;47.900;8.146;2023-03-14T06:19:10;1.27;;;0.40;;
36593;SDS011;22603;47.900;8.146;2023-03-14T06:21:57;1.93;;;0.60;;
36593;SDS011;22603;47.900;8.146;2023-03-14T06:24:46;0.60;;;0.40;;
36593;SDS011;22603;47.900;8.146;2023-03-14T06:27:32;2.23;;;0.47;;
36593;SDS011;22603;47.900;8.146;2023-03-14T06:30:20;1.33;;;0.60;;
36593;SDS011;22603;47.900;8.146;2023-03-14T06:33:07;2.57;;;0.47;;
36593;SDS011;22603;47.900;8.146;2023-03-14T06:35:54;0.43;;;0.30;;
36593;SDS011;22603;47.900;8.146;2023-03-14T06:38:41;0.87;;;0.30;;
36593;SDS011;22603;47.900;8.146;2023-03-14T06:41:29;0.90;;;0.47;;
36593;SDS011;22603;47.900;8.146;2023-03-14T06:44:17;0.40;;;0.40;;
36593;SDS011;22603;47.900;8.146;2023-03-14T06:47:04;0.30;;;0.30;;
36593;SDS011;22603;47.900;8.146;2023-03-14T06:49:51;3.70;;;0.70;;
36593;SDS011;22603;47.900;8.146;2023-03-14T06:52:38;2.00;;;0.50;;
36593;SDS011;22603;47.900;8.146;2023-03-14T06:55:26;0.40;;;0.40;;
36593;SDS011;22603;47.900;8.146;2023-03-14T06:58:14;1.10;;;0.50;;
36593;SDS011;22603;47.900;8.146;2023-03-14T07:01:01;1.90;;;0.40;;
36593;SDS011;22603;47.900;8.146;2023-03-14T07:03:48;1.80;;;0.30;;
36593;SDS011;22603;47.900;8.146;2023-03-14T07:06:34;1.43;;;0.30;;
36593;SDS011;22603;47.900;8.146;2023-03-14T07:09:22;0.30;;;0.30;;
36593;SDS011;22603;47.900;8.146;2023-03-14T07:12:09;0.77;;;0.40;;
36593;SDS011;22603;47.900;8.146;2023-03-14T07:14:57;1.33;;;0.40;;
36593;SDS011;22603;47.900;8.146;2023-03-14T07:18:01;0.83;;;0.30;;
36593;SDS011;22603;47.900;8.146;2023-03-14T07:20:48;0.20;;;0.20;;
36593;SDS011;22603;47.900;8.146;2023-03-14T07:23:35;0.23;;;0.20;;
36593;SDS011;22603;47.900;8.146;2023-03-14T07:26:22;1.30;;;0.40;;
36593;SDS011;22603;47.900;8.146;2023-03-14T07:29:09;0.20;;;0.20;;
36593;SDS011;22603;47.900;8.146;2023-03-14T07:31:57;0.30;;;0.30;;
36593;SDS011;22603;47.900;8.146;2023-03-14T07:34:44;0.30;;;0.30;;
36593;SDS011;22603;47.900;8.146;2023-03-14T07:37:32;1.40;;;0.43;;
36593;SDS011;22603;47.900;8.146;2023-03-14T07:40:18;0.40;;;0.40;;
36593;SDS011;22603;47.900;8.146;2023-03-14T07:43:05;2.63;;;0.40;;
36593;SDS011;22603;47.900;8.146;2023-03-14T07:45:52;0.53;;;0.33;;
36593;SDS011;22603;47.900;8.146;2023-03-14T07:48:44;4.63;;;0.80;;
36593;SDS011;22603;47.900;8.146;2023-03-14T07:51:31;0.83;;;0.40;;
36593;SDS011;22603;47.900;8.146;2023-03-14T07:54:18;0.40;;;0.40;;
36593;SDS011;22603;47.900;8.146;2023-03-14T07:57:05;1.10;;;0.40;;
36593;SDS011;22603;47.900;8.146;2023-03-14T07:59:53;0.83;;;0.40;;
36593;SDS011;22603;47.900;8.146;2023-03-14T08:02:40;0.43;;;0.40;;
36593;SDS011;22603;47.900;8.146;2023-03-14T08:05:29;0.70;;;0.43;;
36593;SDS011;22603;47.900;8.146;2023-03-14T08:08:16;0.20;;;0.20;;
36593;SDS011;22603;47.900;8.146;2023-03-14T08:11:03;0.47;;;0.30;;
36593;SDS011;22603;47.900;8.146;2023-03-14T08:13:51;0.83;;;0.33;;
36593;SDS011;22603;47.900;8.146;2023-03-14T08:16:38;0.67;;;0.40;;
36593;SDS011;22603;47.900;8.146;2023-03-14T08:19:24;1.50;;;0.53;;
36593;SDS011;22603;47.900;8.146;2023-03-14T08:22:13;0.77;;;0.40;;
36593;SDS011;22603;47.900;8.146;2023-03-14T08:25:04;0.20;;;0.20;;
36593;SDS011;22603;47.900;8.146;2023-03-14T08:27:52;0.23;;;0.23;;
36593;SDS011;22603;47.900;8.146;2023-03-14T08:30:39;0.20;;;0.20;;
36593;SDS011;22603;47.900;8.146;2023-03-14T08:33:31;0.47;;;0.47;;
36593;SDS011;22603;47.900;8.146;2023-03-14T08:36:18;0.27;;;0.23;;
36593;SDS011;22603;47.900;8.146;2023-03-14T08:39:09;0.30;;;0.30;;
36593;SDS011;22603;47.900;8.146;2023-03-14T08:41:56;0.30;;;0.30;;
36593;SDS011;22603;47.900;8.146;2023-03-14T08:44:44;1.73;;;0.50;;
36593;SDS011;22603;47.900;8.146;2023-03-14T08:47:31;2.07;;;0.70;;
36593;SDS011;22603;47.900;8.146;2023-03-14T08:50:18;2.37;;;0.70;;
36593;SDS011;22603;47.900;8.146;2023-03-14T08:53:05;1.23;;;0.50;;
36593;SDS011;22603;47.900;8.146;2023-03-14T08:55:53;0.50;;;0.30;;
36593;SDS011;22603;47.900;8.146;2023-03-14T08:58:41;0.40;;;0.40;;
36593;SDS011;22603;47.900;8.146;2023-03-14T09:01:29;0.73;;;0.40;;
36593;SDS011;22603;47.900;8.146;2023-03-14T09:04:16;0.60;;;0.23;;
36593;SDS011;22603;47.900;8.146;2023-03-14T09:07:03;0.30;;;0.30;;
36593;SDS011;22603;47.900;8.146;2023-03-14T09:09:50;0.20;;;0.20;;
36593;SDS011;22603;47.900;8.146;2023-03-14T09:12:38;0.20;;;0.20;;
36593;SDS011;22603;47.900;8.146;2023-03-14T09:15:25;0.27;;;0.27;;
36593;SDS011;22603;47.900;8.146;2023-03-14T09:18:12;0.20;;;0.20;;
36593;SDS011;22603;47.900;8.146;2023-03-14T09:20:59;0.30;;;0.30;;
36593;SDS011;22603;47.900;8.146;2023-03-14T09:23:46;0.30;;;0.30;;
36593;SDS011;22603;47.900;8.146;2023-03-14T09:26:34;0.30;;;0.30;;
36593;SDS011;22603;47.900;8.146;2023-03-14T09:29:24;0.43;;;0.20;;
36593;SDS011;22603;47.900;8.146;2023-03-14T09:32:11;0.20;;;0.20;;
36593;SDS011;22603;47.900;8.146;2023-03-14T09:34:58;0.20;;;0.20;;
36593;SDS011;22603;47.900;8.146;2023-03-14T09:37:45;0.53;;;0.30;;
36593;SDS011;22603;47.900;8.146;2023-03-14T09:40:33;0.20;;;0.20;;
36593;SDS011;22603;47.900;8.146;2023-03-14T09:43:22;1.60;;;0.30;;
36593;SDS011;22603;47.900;8.146;2023-03-14T09:46:13;0.20;;;0.20;;
36593;SDS011;22603;47.900;8.146;2023-03-14T09:49:01;0.20;;;0.20;;
36593;SDS011;22603;47.900;8.146;2023-03-14T09:51:49;0.23;;;0.23;;
36593;SDS011;22603;47.900;8.146;2023-03-14T09:54:40;0.30;;;0.30;;
36593;SDS011;22603;47.900;8.146;2023-03-14T09:57:32;0.20;;;0.20;;
36593;SDS011;22603;47.900;8.146;2023-03-14T10:00:21;0.63;;;0.30;;
36593;SDS011;22603;47.900;8.146;2023-03-14T10:03:28;0.20;;;0.20;;
36593;SDS011;22603;47.900;8.146;2023-03-14T10:06:18;0.23;;;0.23;;
36593;SDS011;22603;47.900;8.146;2023-03-14T10:09:12;0.30;;;0.30;;
36593;SDS011;22603;47.900;8.146;2023-03-14T10:12:10;0.20;;;0.20;;
36593;SDS011;22603;47.900;8.146;2023-03-14T10:14:57;0.30;;;0.30;;
36593;SDS011;22603;47.900;8.146;2023-03-14T10:17:50;0.30;;;0.30;;
36593;SDS011;22603;47.900;8.146;2023-03-14T10:20:39;0.20;;;0.20;;
36593;SDS011;22603;47.900;8.146;2023-03-14T10:23:27;0.20;;;0.20;;
36593;SDS011;22603;47.900;8.146;2023-03-14T10:26:17;5.67;;;0.30;;
36593;SDS011;22603;47.900;8.146;2023-03-14T10:29:10;0.87;;;0.40;;
36593;SDS011;22603;47.900;8.146;2023-03-14T10:31:59;0.73;;;0.40;;
36593;SDS011;22603;47.900;8.146;2023-03-14T10:35:03;0.20;;;0.20;;
36593;SDS011;22603;47.900;8.146;2023-03-14T10:37:55;0.30;;;0.30;;
36593;SDS011;22603;47.900;8.146;2023-03-14T10:40:46;0.23;;;0.23;;
36593;SDS011;22603;47.900;8.146;2023-03-14T10:43:36;0.30;;;0.30;;
36593;SDS011;22603;47.900;8.146;2023-03-14T10:46:24;1.40;;;0.43;;
36593;SDS011;22603;47.900;8.146;2023-03-14T10:49:22;2.67;;;0.60;;
36593;SDS011;22603;47.900;8.146;2023-03-14T10:52:14;2.10;;;0.60;;
36593;SDS011;22603;47.900;8.146;2023-03-14T10:55:22;0.30;;;0.30;;
36593;SDS011;22603;47.900;8.146;2023-03-14T10:58:18;0.37;;;0.37;;
36593;SDS011;22603;47.900;8.146;2023-03-14T11:01:11;0.20;;;0.20;;
36593;SDS011;22603;47.900;8.146;2023-03-14T11:04:17;0.40;;;0.40;;
36593;SDS011;22603;47.900;8.146;2023-03-14T11:07:19;0.40;;;0.40;;
36593;SDS011;22603;47.900;8.146;2023-03-14T11:10:18;0.20;;;0.20;;
36593;SDS011;22603;47.900;8.146;2023-03-14T11:13:14;0.20;;;0.20;;
36593;SDS011;22603;47.900;8.146;2023-03-14T11:16:05;1.23;;;0.30;;
36593;SDS011;22603;47.900;8.146;2023-03-14T11:19:08;0.77;;;0.30;;
36593;SDS011;22603;47.900;8.146;2023-03-14T11:22:24;0.27;;;0.27;;
36593;SDS011;22603;47.900;8.146;2023-03-14T11:25:18;0.30;;;0.30;;
36593;SDS011;22603;47.900;8.146;2023-03-14T11:28:15;0.20;;;0.20;;
36593;SDS011;22603;47.900;8.146;2023-03-14T11:31:09;0.20;;;0.20;;
36593;SDS011;22603;47.900;8.146;2023-03-14T11:34:04;0.20;;;0.20;;
36593;SDS011;22603;47.900;8.146;2023-03-14T11:37:03;0.20;;;0.20;;
36593;SDS011;22603;47.900;8.146;2023-03-14T11:39:55;0.20;;;0.20;;
36593;SDS011;22603;47.900;8.146;2023-03-14T11:42:49;0.20;;;0.20;;
36593;SDS011;22603;47.900;8.146;2023-03-14T11:45:42;0.20;;;0.20;;
36593;SDS011;22603;47.900;8.146;2023-03-14T11:48:35;0.20;;;0.20;;
36593;SDS011;22603;47.900;8.146;2023-03-14T11:51:29;0.43;;;0.43;;
36593;SDS011;22603;47.900;8.146;2023-03-14T11:54:25;0.30;;;0.30;;
36593;SDS011;22603;47.900;8.146;2023-03-14T11:57:26;0.30;;;0.30;;
36593;SDS011;22603;47.900;8.146;2023-03-14T12:00:23;0.50;;;0.30;;
36593;SDS011;22603;47.900;8.146;2023-03-14T12:03:11;0.23;;;0.23;;
36593;SDS011;22603;47.900;8.146;2023-03-14T12:06:09;0.67;;;0.40;;
36593;SDS011;22603;47.900;8.146;2023-03-14T12:09:06;0.30;;;0.30;;
36593;SDS011;22603;47.900;8.146;2023-03-14T12:11:55;2.10;;;0.87;;
36593;SDS011;22603;47.900;8.146;2023-03-14T12:14:44;2.23;;;0.50;;
36593;SDS011;22603;47.900;8.146;2023-03-14T12:17:35;0.47;;;0.47;;
36593;SDS011;22603;47.900;8.146;2023-03-14T12:20:25;1.43;;;0.67;;
36593;SDS011;22603;47.900;8.146;2023-03-14T12:23:13;0.60;;;0.40;;
36593;SDS011;22603;47.900;8.146;2023-03-14T12:26:12;0.30;;;0.30;;
36593;SDS011;22603;47.900;8.146;2023-03-14T12:29:10;0.40;;;0.40;;
36593;SDS011;22603;47.900;8.146;2023-03-14T12:32:08;0.37;;;0.30;;
36593;SDS011;22603;47.900;8.146;2023-03-14T12:38:23;0.53;;;0.53;;
36593;SDS011;22603;47.900;8.146;2023-03-14T12:41:17;0.40;;;0.40;;
36593;SDS011;22603;47.900;8.146;2023-03-14T12:50:44;0.60;;;0.47;;
36593;SDS011;22603;47.900;8.146;2023-03-14T12:53:37;1.73;;;0.73;;
36593;SDS011;22603;47.900;8.146;2023-03-14T12:56:54;2.37;;;0.87;;
36593;SDS011;22603;47.900;8.146;2023-03-14T12:59:47;1.43;;;0.70;;
36593;SDS011;22603;47.900;8.146;2023-03-14T13:02:37;1.50;;;0.50;;
36593;SDS011;22603;47.900;8.146;2023-03-14T13:05:27;1.87;;;0.93;;
36593;SDS011;22603;47.900;8.146;2023-03-14T13:08:19;0.63;;;0.50;;
36593;SDS011;22603;47.900;8.146;2023-03-14T13:11:23;0.77;;;0.60;;
36593;SDS011;22603;47.900;8.146;2023-03-14T13:14:11;1.20;;;0.70;;
36593;SDS011;22603;47.900;8.146;2023-03-14T13:16:59;1.17;;;0.73;;
36593;SDS011;22603;47.900;8.146;2023-03-14T13:20:10;1.33;;;0.97;;
36593;SDS011;22603;47.900;8.146;2023-03-14T13:23:03;0.90;;;0.60;;
36593;SDS011;22603;47.900;8.146;2023-03-14T13:25:52;1.23;;;0.70;;
36593;SDS011;22603;47.900;8.146;2023-03-14T13:28:39;2.37;;;1.00;;
36593;SDS011;22603;47.900;8.146;2023-03-14T13:31:27;1.07;;;0.70;;
36593;SDS011;22603;47.900;8.146;2023-03-14T13:34:15;0.90;;;0.50;;
36593;SDS011;22603;47.900;8.146;2023-03-14T13:37:03;0.53;;;0.53;;
36593;SDS011;22603;47.900;8.146;2023-03-14T13:39:51;2.87;;;0.60;;
36593;SDS011;22603;47.900;8.146;2023-03-14T13:42:41;2.83;;;0.80;;
36593;SDS011;22603;47.900;8.146;2023-03-14T13:45:29;2.77;;;0.70;;
36593;SDS011;22603;47.900;8.146;2023-03-14T13:48:16;1.17;;;0.60;;
36593;SDS011;22603;47.900;8.146;2023-03-14T13:51:05;0.40;;;0.40;;
36593;SDS011;22603;47.900;8.146;2023-03-14T13:53:54;0.53;;;0.50;;
36593;SDS011;22603;47.900;8.146;2023-03-14T13:56:42;2.20;;;0.70;;
36593;SDS011;22603;47.900;8.146;2023-03-14T13:59:32;1.73;;;0.70;;
36593;SDS011;22603;47.900;8.146;2023-03-14T14:02:19;3.77;;;1.00;;
36593;SDS011;22603;47.900;8.146;2023-03-14T14:05:08;3.73;;;1.30;;
36593;SDS011;22603;47.900;8.146;2023-03-14T14:07:56;4.43;;;0.90;;
36593;SDS011;22603;47.900;8.146;2023-03-14T14:10:43;1.73;;;0.67;;
36593;SDS011;22603;47.900;8.146;2023-03-14T14:13:34;1.30;;;0.90;;
36593;SDS011;22603;47.900;8.146;2023-03-14T14:16:24;2.17;;;1.20;;
36593;SDS011;22603;47.900;8.146;2023-03-14T14:19:12;1.67;;;0.77;;
36593;SDS011;22603;47.900;8.146;2023-03-14T14:22:00;1.50;;;0.80;;
36593;SDS011;22603;47.900;8.146;2023-03-14T14:24:47;3.00;;;1.00;;
36593;SDS011;22603;47.900;8.146;2023-03-14T14:27:37;1.30;;;0.97;;
36593;SDS011;22603;47.900;8.146;2023-03-14T14:30:28;3.80;;;0.70;;
36593;SDS011;22603;47.900;8.146;2023-03-14T14:33:20;3.30;;;0.90;;
36593;SDS011;22603;47.900;8.146;2023-03-14T14:36:13;2.33;;;0.80;;
36593;SDS011;22603;47.900;8.146;2023-03-14T14:39:05;3.07;;;0.80;;
36593;SDS011;22603;47.900;8.146;2023-03-14T14:41:58;2.40;;;0.90;;
36593;SDS011;22603;47.900;8.146;2023-03-14T14:44:45;1.27;;;0.60;;
36593;SDS011;22603;47.900;8.146;2023-03-14T14:47:34;3.50;;;0.90;;
36593;SDS011;22603;47.900;8.146;2023-03-14T14:50:28;3.33;;;0.97;;
36593;SDS011;22603;47.900;8.146;2023-03-14T14:53:21;3.13;;;1.00;;
36593;SDS011;22603;47.900;8.146;2023-03-14T14:56:15;4.23;;;1.07;;
36593;SDS011;22603;47.900;8.146;2023-03-14T14:59:04;4.13;;;0.80;;
36593;SDS011;22603;47.900;8.146;2023-03-14T15:01:56;7.83;;;0.90;;
36593;SDS011;22603;47.900;8.146;2023-03-14T15:04:45;5.97;;;1.57;;
36593;SDS011;22603;47.900;8.146;2023-03-14T15:07:34;5.03;;;1.13;;
36593;SDS011;22603;47.900;8.146;2023-03-14T15:10:22;4.83;;;1.30;;
36593;SDS011;22603;47.900;8.146;2023-03-14T15:13:10;8.50;;;0.87;;
36593;SDS011;22603;47.900;8.146;2023-03-14T15:15:58;1.40;;;0.83;;
36593;SDS011;22603;47.900;8.146;2023-03-14T15:18:45;4.37;;;1.00;;
36593;SDS011;22603;47.900;8.146;2023-03-14T15:21:36;4.93;;;0.70;;
36593;SDS011;22603;47.900;8.146;2023-03-14T15:24:24;2.97;;;0.93;;
36593;SDS011;22603;47.900;8.146;2023-03-14T15:27:12;2.50;;;0.80;;
36593;SDS011;22603;47.900;8.146;2023-03-14T15:30:01;0.97;;;0.60;;
36593;SDS011;22603;47.900;8.146;2023-03-14T15:32:48;7.93;;;1.13;;
36593;SDS011;22603;47.900;8.146;2023-03-14T15:35:35;4.23;;;1.00;;
36593;SDS011;22603;47.900;8.146;2023-03-14T15:38:23;2.13;;;0.80;;
36593;SDS011;22603;47.900;8.146;2023-03-14T15:41:11;2.13;;;0.80;;
36593;SDS011;22603;47.900;8.146;2023-03-14T15:43:58;1.37;;;0.50;;
36593;SDS011;22603;47.900;8.146;2023-03-14T15:46:45;9.47;;;0.80;;
36593;SDS011;22603;47.900;8.146;2023-03-14T15:49:32;1.13;;;0.80;;
36593;SDS011;22603;47.900;8.146;2023-03-14T15:52:20;6.13;;;0.80;;
36593;SDS011;22603;47.900;8.146;2023-03-14T15:55:07;3.60;;;0.73;;
36593;SDS011;22603;47.900;8.146;2023-03-14T15:57:56;2.33;;;0.63;;
36593;SDS011;22603;47.900;8.146;2023-03-14T16:00:43;4.27;;;1.07;;
36593;SDS011;22603;47.900;8.146;2023-03-14T16:03:31;0.90;;;0.60;;
36593;SDS011;22603;47.900;8.146;2023-03-14T16:06:18;1.03;;;0.60;;
36593;SDS011;22603;47.900;8.146;2023-03-14T16:09:05;1.47;;;0.60;;
36593;SDS011;22603;47.900;8.146;2023-03-14T16:11:53;2.73;;;0.60;;
36593;SDS011;22603;47.900;8.146;2023-03-14T16:14:42;1.40;;;0.70;;
36593;SDS011;22603;47.900;8.146;2023-03-14T16:17:29;0.60;;;0.60;;
36593;SDS011;22603;47.900;8.146;2023-03-14T16:20:17;0.43;;;0.43;;
36593;SDS011;22603;47.900;8.146;2023-03-14T16:23:04;6.30;;;0.90;;
36593;SDS011;22603;47.900;8.146;2023-03-14T16:25:51;0.83;;;0.60;;
36593;SDS011;22603;47.900;8.146;2023-03-14T16:28:39;2.13;;;0.80;;
36593;SDS011;22603;47.900;8.146;2023-03-14T16:31:28;4.20;;;0.70;;
36593;SDS011;22603;47.900;8.146;2023-03-14T16:34:15;1.13;;;0.67;;
36593;SDS011;22603;47.900;8.146;2023-03-14T16:37:02;3.23;;;0.77;;
36593;SDS011;22603;47.900;8.146;2023-03-14T16:39:49;0.90;;;0.63;;
36593;SDS011;22603;47.900;8.146;2023-03-14T16:42:55;1.27;;;0.77;;
36593;SDS011;22603;47.900;8.146;2023-03-14T16:46:03;2.23;;;0.73;;
36593;SDS011;22603;47.900;8.146;2023-03-14T16:48:53;1.43;;;0.80;;
36593;SDS011;22603;47.900;8.146;2023-03-14T16:51:41;3.67;;;1.00;;
36593;SDS011;22603;47.900;8.146;2023-03-14T16:54:28;3.50;;;1.10;;
36593;SDS011;22603;47.900;8.146;2023-03-14T16:57:15;1.33;;;0.70;;
36593;SDS011;22603;47.900;8.146;2023-03-14T17:00:02;2.77;;;0.70;;
36593;SDS011;22603;47.900;8.146;2023-03-14T17:02:54;0.63;;;0.50;;
36593;SDS011;22603;47.900;8.146;2023-03-14T17:05:45;1.87;;;0.63;;
36593;SDS011;22603;47.900;8.146;2023-03-14T17:08:33;3.13;;;0.73;;
36593;SDS011;22603;47.900;8.146;2023-03-14T17:11:20;4.47;;;0.97;;
36593;SDS011;22603;47.900;8.146;2023-03-14T17:14:08;3.73;;;0.80;;
36593;SDS011;22603;47.900;8.146;2023-03-14T17:16:58;1.73;;;0.60;;
36593;SDS011;22603;47.900;8.146;2023-03-14T17:19:48;0.93;;;0.50;;